Terminal Aerodrome Forecast
Issued by NWS Duluth, MN

Home | Current Version | Previous Version | Text Only | Print | Product List | Glossary On
Versions: 1 2 3 4 5 6 7 8 9 10 11 12 13 14 15 16 17 18 19 20 21 22 23 24 25 26 27 28
000
FTUS43 KDLH 281400 AAA
TAFDLH
TAF AMD
KDLH 281431Z 2815/2912 15011KT 4SM BR OVC005
     FM281700 14008KT 6SM BR OVC007
     FM290100 VRB03KT 5SM BR VCSH SCT005 OVC007
     FM290700 30007KT 5SM BR OVC012
     FM291000 31012KT P6SM SCT015 BKN018=

USA.gov is the U.S. government's official web portal to all federal, state and local government web resources and services.